sensor_id;sensor_type;location;lat;lon;timestamp;P1;durP1;ratioP1;P2;durP2;ratioP2
23814;SDS011;12088;53.078;8.720;2024-02-23T00:01:58;2.33;;;2.00;;
23814;SDS011;12088;53.078;8.720;2024-02-23T00:04:24;1.70;;;1.40;;
23814;SDS011;12088;53.078;8.720;2024-02-23T00:06:50;2.77;;;1.10;;
23814;SDS011;12088;53.078;8.720;2024-02-23T00:09:15;2.83;;;1.10;;
23814;SDS011;12088;53.078;8.720;2024-02-23T00:11:41;2.27;;;1.43;;
23814;SDS011;12088;53.078;8.720;2024-02-23T00:14:12;1.60;;;1.00;;
23814;SDS011;12088;53.078;8.720;2024-02-23T00:16:39;2.90;;;1.10;;
23814;SDS011;12088;53.078;8.720;2024-02-23T00:19:07;4.10;;;1.17;;
23814;SDS011;12088;53.078;8.720;2024-02-23T00:21:33;1.37;;;1.23;;
23814;SDS011;12088;53.078;8.720;2024-02-23T00:23:59;1.20;;;1.10;;
23814;SDS011;12088;53.078;8.720;2024-02-23T00:26:25;1.73;;;1.10;;
23814;SDS011;12088;53.078;8.720;2024-02-23T00:28:53;1.60;;;1.50;;
23814;SDS011;12088;53.078;8.720;2024-02-23T00:31:18;1.17;;;1.10;;
23814;SDS011;12088;53.078;8.720;2024-02-23T00:33:44;2.73;;;1.47;;
23814;SDS011;12088;53.078;8.720;2024-02-23T00:36:10;2.03;;;1.30;;
23814;SDS011;12088;53.078;8.720;2024-02-23T00:38:36;1.60;;;1.50;;
23814;SDS011;12088;53.078;8.720;2024-02-23T00:41:02;0.97;;;0.97;;
23814;SDS011;12088;53.078;8.720;2024-02-23T00:43:28;1.00;;;1.00;;
23814;SDS011;12088;53.078;8.720;2024-02-23T00:45:54;1.17;;;1.07;;
23814;SDS011;12088;53.078;8.720;2024-02-23T00:48:20;1.17;;;1.17;;
23814;SDS011;12088;53.078;8.720;2024-02-23T00:50:46;0.90;;;0.90;;
23814;SDS011;12088;53.078;8.720;2024-02-23T00:53:12;1.50;;;1.40;;
23814;SDS011;12088;53.078;8.720;2024-02-23T00:55:38;0.80;;;0.73;;
23814;SDS011;12088;53.078;8.720;2024-02-23T00:58:04;1.20;;;1.10;;
23814;SDS011;12088;53.078;8.720;2024-02-23T01:00:31;0.67;;;0.67;;
23814;SDS011;12088;53.078;8.720;2024-02-23T01:02:58;1.20;;;1.20;;
23814;SDS011;12088;53.078;8.720;2024-02-23T01:05:25;1.30;;;1.30;;
23814;SDS011;12088;53.078;8.720;2024-02-23T01:07:51;1.53;;;1.40;;
23814;SDS011;12088;53.078;8.720;2024-02-23T01:10:17;1.03;;;0.80;;
23814;SDS011;12088;53.078;8.720;2024-02-23T01:12:43;0.70;;;0.70;;
23814;SDS011;12088;53.078;8.720;2024-02-23T01:15:09;0.57;;;0.57;;
23814;SDS011;12088;53.078;8.720;2024-02-23T01:17:35;0.70;;;0.70;;
23814;SDS011;12088;53.078;8.720;2024-02-23T01:20:02;0.70;;;0.70;;
23814;SDS011;12088;53.078;8.720;2024-02-23T01:22:28;0.80;;;0.80;;
23814;SDS011;12088;53.078;8.720;2024-02-23T01:24:54;0.90;;;0.90;;
23814;SDS011;12088;53.078;8.720;2024-02-23T01:27:20;0.87;;;0.87;;
23814;SDS011;12088;53.078;8.720;2024-02-23T01:29:47;0.90;;;0.90;;
23814;SDS011;12088;53.078;8.720;2024-02-23T01:32:13;0.60;;;0.60;;
23814;SDS011;12088;53.078;8.720;2024-02-23T01:34:39;1.00;;;1.00;;
23814;SDS011;12088;53.078;8.720;2024-02-23T01:37:05;0.90;;;0.90;;
23814;SDS011;12088;53.078;8.720;2024-02-23T01:39:31;1.03;;;1.00;;
23814;SDS011;12088;53.078;8.720;2024-02-23T01:41:57;1.50;;;0.70;;
23814;SDS011;12088;53.078;8.720;2024-02-23T01:44:23;1.50;;;1.40;;
23814;SDS011;12088;53.078;8.720;2024-02-23T01:46:50;1.23;;;1.13;;
23814;SDS011;12088;53.078;8.720;2024-02-23T01:49:16;2.87;;;1.60;;
23814;SDS011;12088;53.078;8.720;2024-02-23T01:51:42;0.90;;;0.90;;
23814;SDS011;12088;53.078;8.720;2024-02-23T01:54:09;1.10;;;1.00;;
23814;SDS011;12088;53.078;8.720;2024-02-23T01:56:35;1.20;;;1.10;;
23814;SDS011;12088;53.078;8.720;2024-02-23T01:59:04;1.07;;;0.90;;
23814;SDS011;12088;53.078;8.720;2024-02-23T02:01:30;0.90;;;0.90;;
23814;SDS011;12088;53.078;8.720;2024-02-23T02:03:57;0.80;;;0.80;;
23814;SDS011;12088;53.078;8.720;2024-02-23T02:06:24;1.20;;;0.83;;
23814;SDS011;12088;53.078;8.720;2024-02-23T02:08:50;0.60;;;0.60;;
23814;SDS011;12088;53.078;8.720;2024-02-23T02:11:16;0.60;;;0.60;;
23814;SDS011;12088;53.078;8.720;2024-02-23T02:13:42;1.07;;;0.70;;
23814;SDS011;12088;53.078;8.720;2024-02-23T02:16:08;0.70;;;0.70;;
23814;SDS011;12088;53.078;8.720;2024-02-23T02:18:36;1.03;;;0.70;;
23814;SDS011;12088;53.078;8.720;2024-02-23T02:21:02;0.70;;;0.70;;
23814;SDS011;12088;53.078;8.720;2024-02-23T02:23:28;1.47;;;1.37;;
23814;SDS011;12088;53.078;8.720;2024-02-23T02:25:55;0.83;;;0.83;;
23814;SDS011;12088;53.078;8.720;2024-02-23T02:28:21;0.60;;;0.60;;
23814;SDS011;12088;53.078;8.720;2024-02-23T02:30:48;0.70;;;0.70;;
23814;SDS011;12088;53.078;8.720;2024-02-23T02:33:14;0.70;;;0.70;;
23814;SDS011;12088;53.078;8.720;2024-02-23T02:35:40;0.80;;;0.80;;
23814;SDS011;12088;53.078;8.720;2024-02-23T02:38:06;1.00;;;1.00;;
23814;SDS011;12088;53.078;8.720;2024-02-23T02:40:32;1.20;;;1.10;;
23814;SDS011;12088;53.078;8.720;2024-02-23T02:42:58;2.17;;;1.00;;
23814;SDS011;12088;53.078;8.720;2024-02-23T02:45:24;1.00;;;1.00;;
23814;SDS011;12088;53.078;8.720;2024-02-23T02:47:49;1.10;;;1.00;;
23814;SDS011;12088;53.078;8.720;2024-02-23T02:50:16;1.00;;;0.90;;
23814;SDS011;12088;53.078;8.720;2024-02-23T02:52:42;2.07;;;1.10;;
23814;SDS011;12088;53.078;8.720;2024-02-23T02:55:08;1.60;;;1.20;;
23814;SDS011;12088;53.078;8.720;2024-02-23T02:57:34;1.30;;;1.20;;
23814;SDS011;12088;53.078;8.720;2024-02-23T03:00:03;3.43;;;0.90;;
23814;SDS011;12088;53.078;8.720;2024-02-23T03:02:33;2.10;;;1.17;;
23814;SDS011;12088;53.078;8.720;2024-02-23T03:04:59;0.97;;;0.90;;
23814;SDS011;12088;53.078;8.720;2024-02-23T03:07:25;1.67;;;1.10;;
23814;SDS011;12088;53.078;8.720;2024-02-23T03:09:51;3.03;;;1.00;;
23814;SDS011;12088;53.078;8.720;2024-02-23T03:12:17;2.20;;;0.83;;
23814;SDS011;12088;53.078;8.720;2024-02-23T03:14:44;1.40;;;0.90;;
23814;SDS011;12088;53.078;8.720;2024-02-23T03:17:10;1.67;;;0.90;;
23814;SDS011;12088;53.078;8.720;2024-02-23T03:19:36;1.90;;;0.90;;
23814;SDS011;12088;53.078;8.720;2024-02-23T03:22:02;4.80;;;0.80;;
23814;SDS011;12088;53.078;8.720;2024-02-23T03:24:28;1.70;;;1.17;;
23814;SDS011;12088;53.078;8.720;2024-02-23T03:26:54;2.00;;;1.90;;
23814;SDS011;12088;53.078;8.720;2024-02-23T03:29:21;3.00;;;1.30;;
23814;SDS011;12088;53.078;8.720;2024-02-23T03:31:50;2.93;;;1.40;;
23814;SDS011;12088;53.078;8.720;2024-02-23T03:34:16;2.93;;;1.70;;
23814;SDS011;12088;53.078;8.720;2024-02-23T03:36:42;8.33;;;1.93;;
23814;SDS011;12088;53.078;8.720;2024-02-23T03:39:08;2.50;;;1.90;;
23814;SDS011;12088;53.078;8.720;2024-02-23T03:41:35;5.97;;;2.50;;
23814;SDS011;12088;53.078;8.720;2024-02-23T03:44:01;3.83;;;2.30;;
23814;SDS011;12088;53.078;8.720;2024-02-23T03:46:27;5.80;;;2.53;;
23814;SDS011;12088;53.078;8.720;2024-02-23T03:48:53;7.37;;;3.20;;
23814;SDS011;12088;53.078;8.720;2024-02-23T03:51:19;6.23;;;3.13;;
23814;SDS011;12088;53.078;8.720;2024-02-23T03:53:45;6.23;;;2.93;;
23814;SDS011;12088;53.078;8.720;2024-02-23T03:56:11;8.87;;;3.13;;
23814;SDS011;12088;53.078;8.720;2024-02-23T03:58:37;7.17;;;2.77;;
23814;SDS011;12088;53.078;8.720;2024-02-23T04:01:03;11.70;;;6.27;;
23814;SDS011;12088;53.078;8.720;2024-02-23T04:03:29;7.47;;;2.90;;
23814;SDS011;12088;53.078;8.720;2024-02-23T04:05:55;7.27;;;3.33;;
23814;SDS011;12088;53.078;8.720;2024-02-23T04:08:21;6.60;;;3.20;;
23814;SDS011;12088;53.078;8.720;2024-02-23T04:10:47;4.17;;;2.70;;
23814;SDS011;12088;53.078;8.720;2024-02-23T04:13:13;6.50;;;2.77;;
23814;SDS011;12088;53.078;8.720;2024-02-23T04:15:40;5.67;;;2.43;;
23814;SDS011;12088;53.078;8.720;2024-02-23T04:18:06;5.00;;;2.50;;
23814;SDS011;12088;53.078;8.720;2024-02-23T04:20:32;5.13;;;2.40;;
23814;SDS011;12088;53.078;8.720;2024-02-23T04:22:58;3.53;;;2.43;;
23814;SDS011;12088;53.078;8.720;2024-02-23T04:25:24;2.93;;;2.20;;
23814;SDS011;12088;53.078;8.720;2024-02-23T04:27:50;3.97;;;2.30;;
23814;SDS011;12088;53.078;8.720;2024-02-23T04:30:16;2.77;;;1.80;;
23814;SDS011;12088;53.078;8.720;2024-02-23T04:32:42;1.97;;;1.60;;
23814;SDS011;12088;53.078;8.720;2024-02-23T04:35:09;2.53;;;1.60;;
23814;SDS011;12088;53.078;8.720;2024-02-23T04:37:35;2.73;;;1.80;;
23814;SDS011;12088;53.078;8.720;2024-02-23T04:40:01;3.27;;;1.50;;
23814;SDS011;12088;53.078;8.720;2024-02-23T04:42:29;1.70;;;1.47;;
23814;SDS011;12088;53.078;8.720;2024-02-23T04:44:55;1.97;;;1.77;;
23814;SDS011;12088;53.078;8.720;2024-02-23T04:47:21;3.33;;;1.27;;
23814;SDS011;12088;53.078;8.720;2024-02-23T04:49:47;3.20;;;1.40;;
23814;SDS011;12088;53.078;8.720;2024-02-23T04:52:14;2.80;;;1.30;;
23814;SDS011;12088;53.078;8.720;2024-02-23T04:54:40;1.80;;;1.17;;
23814;SDS011;12088;53.078;8.720;2024-02-23T04:57:06;2.07;;;1.00;;
23814;SDS011;12088;53.078;8.720;2024-02-23T04:59:32;3.60;;;1.20;;
23814;SDS011;12088;53.078;8.720;2024-02-23T05:01:58;1.83;;;1.10;;
23814;SDS011;12088;53.078;8.720;2024-02-23T05:04:24;4.03;;;1.20;;
23814;SDS011;12088;53.078;8.720;2024-02-23T05:06:51;2.13;;;1.33;;
23814;SDS011;12088;53.078;8.720;2024-02-23T05:09:17;2.90;;;1.63;;
23814;SDS011;12088;53.078;8.720;2024-02-23T05:11:43;2.93;;;1.30;;
23814;SDS011;12088;53.078;8.720;2024-02-23T05:14:11;5.50;;;1.60;;
23814;SDS011;12088;53.078;8.720;2024-02-23T05:16:36;2.30;;;1.70;;
23814;SDS011;12088;53.078;8.720;2024-02-23T05:19:02;6.50;;;1.80;;
23814;SDS011;12088;53.078;8.720;2024-02-23T05:21:29;3.57;;;1.80;;
23814;SDS011;12088;53.078;8.720;2024-02-23T05:23:55;3.47;;;2.00;;
23814;SDS011;12088;53.078;8.720;2024-02-23T05:26:21;3.37;;;1.80;;
23814;SDS011;12088;53.078;8.720;2024-02-23T05:28:47;3.33;;;1.73;;
23814;SDS011;12088;53.078;8.720;2024-02-23T05:31:13;5.43;;;2.30;;
23814;SDS011;12088;53.078;8.720;2024-02-23T05:33:38;3.20;;;2.40;;
23814;SDS011;12088;53.078;8.720;2024-02-23T05:36:04;3.77;;;2.30;;
23814;SDS011;12088;53.078;8.720;2024-02-23T05:38:31;5.30;;;2.67;;
23814;SDS011;12088;53.078;8.720;2024-02-23T05:40:57;4.80;;;2.70;;
23814;SDS011;12088;53.078;8.720;2024-02-23T05:43:22;5.07;;;2.93;;
23814;SDS011;12088;53.078;8.720;2024-02-23T05:45:48;6.97;;;2.57;;
23814;SDS011;12088;53.078;8.720;2024-02-23T05:48:14;8.30;;;3.00;;
23814;SDS011;12088;53.078;8.720;2024-02-23T05:50:40;7.23;;;3.40;;
23814;SDS011;12088;53.078;8.720;2024-02-23T05:53:09;6.03;;;3.13;;
23814;SDS011;12088;53.078;8.720;2024-02-23T05:55:35;5.70;;;3.27;;
23814;SDS011;12088;53.078;8.720;2024-02-23T05:58:01;9.60;;;3.17;;
23814;SDS011;12088;53.078;8.720;2024-02-23T06:00:28;4.10;;;2.70;;
23814;SDS011;12088;53.078;8.720;2024-02-23T06:02:56;7.00;;;3.07;;
23814;SDS011;12088;53.078;8.720;2024-02-23T06:05:22;5.33;;;2.90;;
23814;SDS011;12088;53.078;8.720;2024-02-23T06:07:48;8.80;;;3.23;;
23814;SDS011;12088;53.078;8.720;2024-02-23T06:10:14;5.63;;;3.07;;
23814;SDS011;12088;53.078;8.720;2024-02-23T06:12:40;4.70;;;2.90;;
23814;SDS011;12088;53.078;8.720;2024-02-23T06:15:06;5.83;;;2.40;;
23814;SDS011;12088;53.078;8.720;2024-02-23T06:17:32;3.70;;;2.20;;
23814;SDS011;12088;53.078;8.720;2024-02-23T06:19:58;8.30;;;2.70;;
23814;SDS011;12088;53.078;8.720;2024-02-23T06:22:24;7.57;;;2.67;;
23814;SDS011;12088;53.078;8.720;2024-02-23T06:24:50;8.40;;;2.83;;
23814;SDS011;12088;53.078;8.720;2024-02-23T06:27:16;8.27;;;2.43;;
23814;SDS011;12088;53.078;8.720;2024-02-23T06:29:42;7.70;;;3.13;;
23814;SDS011;12088;53.078;8.720;2024-02-23T06:32:08;7.43;;;3.13;;
23814;SDS011;12088;53.078;8.720;2024-02-23T06:34:34;7.43;;;2.63;;
23814;SDS011;12088;53.078;8.720;2024-02-23T06:37:00;7.53;;;3.13;;
23814;SDS011;12088;53.078;8.720;2024-02-23T06:39:26;4.40;;;2.37;;
23814;SDS011;12088;53.078;8.720;2024-02-23T06:41:52;5.17;;;2.27;;
23814;SDS011;12088;53.078;8.720;2024-02-23T06:44:18;4.23;;;2.57;;
23814;SDS011;12088;53.078;8.720;2024-02-23T06:46:44;5.30;;;2.73;;
23814;SDS011;12088;53.078;8.720;2024-02-23T06:49:10;4.00;;;2.47;;
23814;SDS011;12088;53.078;8.720;2024-02-23T06:51:36;7.03;;;2.60;;
23814;SDS011;12088;53.078;8.720;2024-02-23T06:54:04;4.63;;;2.10;;
23814;SDS011;12088;53.078;8.720;2024-02-23T06:56:30;4.47;;;2.07;;
23814;SDS011;12088;53.078;8.720;2024-02-23T06:58:56;5.33;;;2.83;;
23814;SDS011;12088;53.078;8.720;2024-02-23T07:01:22;7.47;;;2.30;;
23814;SDS011;12088;53.078;8.720;2024-02-23T07:03:48;5.20;;;2.27;;
23814;SDS011;12088;53.078;8.720;2024-02-23T07:06:16;7.93;;;2.40;;
23814;SDS011;12088;53.078;8.720;2024-02-23T07:08:43;6.33;;;2.43;;
23814;SDS011;12088;53.078;8.720;2024-02-23T07:11:09;8.17;;;2.20;;
23814;SDS011;12088;53.078;8.720;2024-02-23T07:13:35;5.60;;;2.40;;
23814;SDS011;12088;53.078;8.720;2024-02-23T07:16:01;4.83;;;2.27;;
23814;SDS011;12088;53.078;8.720;2024-02-23T07:18:27;8.80;;;2.43;;
23814;SDS011;12088;53.078;8.720;2024-02-23T07:20:54;14.53;;;2.63;;
23814;SDS011;12088;53.078;8.720;2024-02-23T07:23:20;9.53;;;2.80;;
23814;SDS011;12088;53.078;8.720;2024-02-23T07:25:47;6.47;;;2.47;;
23814;SDS011;12088;53.078;8.720;2024-02-23T07:28:15;7.03;;;2.10;;
23814;SDS011;12088;53.078;8.720;2024-02-23T07:30:44;8.20;;;2.30;;
23814;SDS011;12088;53.078;8.720;2024-02-23T07:33:10;5.73;;;1.80;;
23814;SDS011;12088;53.078;8.720;2024-02-23T07:35:36;3.57;;;2.03;;
23814;SDS011;12088;53.078;8.720;2024-02-23T07:38:02;7.27;;;2.33;;
23814;SDS011;12088;53.078;8.720;2024-02-23T07:40:29;5.90;;;2.10;;
23814;SDS011;12088;53.078;8.720;2024-02-23T07:42:56;7.23;;;2.23;;
23814;SDS011;12088;53.078;8.720;2024-02-23T07:45:22;5.13;;;2.00;;
23814;SDS011;12088;53.078;8.720;2024-02-23T07:47:48;6.40;;;2.00;;
23814;SDS011;12088;53.078;8.720;2024-02-23T07:50:14;4.40;;;2.13;;
23814;SDS011;12088;53.078;8.720;2024-02-23T07:52:41;9.13;;;2.40;;
23814;SDS011;12088;53.078;8.720;2024-02-23T07:55:07;5.80;;;2.50;;
23814;SDS011;12088;53.078;8.720;2024-02-23T07:57:33;5.80;;;2.13;;
23814;SDS011;12088;53.078;8.720;2024-02-23T07:59:59;5.50;;;2.13;;
23814;SDS011;12088;53.078;8.720;2024-02-23T08:02:26;4.53;;;2.03;;
23814;SDS011;12088;53.078;8.720;2024-02-23T08:04:52;5.27;;;1.90;;
23814;SDS011;12088;53.078;8.720;2024-02-23T08:07:18;9.07;;;2.30;;
23814;SDS011;12088;53.078;8.720;2024-02-23T08:09:44;4.87;;;1.90;;
23814;SDS011;12088;53.078;8.720;2024-02-23T08:12:10;5.90;;;1.90;;
23814;SDS011;12088;53.078;8.720;2024-02-23T08:14:38;6.20;;;2.00;;
23814;SDS011;12088;53.078;8.720;2024-02-23T08:17:04;5.20;;;1.90;;
23814;SDS011;12088;53.078;8.720;2024-02-23T08:19:30;6.87;;;1.73;;
23814;SDS011;12088;53.078;8.720;2024-02-23T08:21:56;3.77;;;1.63;;
23814;SDS011;12088;53.078;8.720;2024-02-23T08:24:22;7.67;;;1.60;;
23814;SDS011;12088;53.078;8.720;2024-02-23T08:26:48;5.07;;;1.80;;
23814;SDS011;12088;53.078;8.720;2024-02-23T08:29:14;6.93;;;1.77;;
23814;SDS011;12088;53.078;8.720;2024-02-23T08:31:41;5.50;;;2.10;;
23814;SDS011;12088;53.078;8.720;2024-02-23T08:34:07;7.37;;;2.10;;
23814;SDS011;12088;53.078;8.720;2024-02-23T08:36:33;8.07;;;2.00;;
23814;SDS011;12088;53.078;8.720;2024-02-23T08:38:59;3.90;;;1.50;;
23814;SDS011;12088;53.078;8.720;2024-02-23T08:41:25;5.63;;;1.90;;
23814;SDS011;12088;53.078;8.720;2024-02-23T08:43:51;7.63;;;2.43;;
23814;SDS011;12088;53.078;8.720;2024-02-23T08:46:17;3.90;;;1.60;;
23814;SDS011;12088;53.078;8.720;2024-02-23T08:48:44;7.63;;;1.90;;
23814;SDS011;12088;53.078;8.720;2024-02-23T08:51:10;4.03;;;1.70;;
23814;SDS011;12088;53.078;8.720;2024-02-23T08:53:36;5.97;;;1.77;;
23814;SDS011;12088;53.078;8.720;2024-02-23T08:56:02;7.10;;;1.50;;
23814;SDS011;12088;53.078;8.720;2024-02-23T08:58:28;8.97;;;2.10;;
23814;SDS011;12088;53.078;8.720;2024-02-23T09:00:54;6.97;;;1.97;;
23814;SDS011;12088;53.078;8.720;2024-02-23T09:03:20;5.03;;;1.60;;
23814;SDS011;12088;53.078;8.720;2024-02-23T09:05:46;5.13;;;1.50;;
23814;SDS011;12088;53.078;8.720;2024-02-23T09:08:13;6.53;;;2.00;;
23814;SDS011;12088;53.078;8.720;2024-02-23T09:10:39;6.13;;;1.57;;
23814;SDS011;12088;53.078;8.720;2024-02-23T09:13:05;5.50;;;1.70;;
23814;SDS011;12088;53.078;8.720;2024-02-23T09:15:31;2.07;;;1.57;;
23814;SDS011;12088;53.078;8.720;2024-02-23T09:17:57;5.60;;;1.57;;
23814;SDS011;12088;53.078;8.720;2024-02-23T09:20:23;8.63;;;2.03;;
23814;SDS011;12088;53.078;8.720;2024-02-23T09:22:49;7.90;;;2.10;;
23814;SDS011;12088;53.078;8.720;2024-02-23T09:25:15;5.90;;;1.77;;
23814;SDS011;12088;53.078;8.720;2024-02-23T09:27:41;4.53;;;1.60;;
23814;SDS011;12088;53.078;8.720;2024-02-23T09:30:11;8.03;;;2.00;;
23814;SDS011;12088;53.078;8.720;2024-02-23T09:32:37;8.93;;;1.83;;
23814;SDS011;12088;53.078;8.720;2024-02-23T09:35:03;3.83;;;1.60;;
23814;SDS011;12088;53.078;8.720;2024-02-23T09:37:30;4.90;;;2.10;;
23814;SDS011;12088;53.078;8.720;2024-02-23T09:39:56;8.67;;;2.00;;
23814;SDS011;12088;53.078;8.720;2024-02-23T09:42:22;2.33;;;2.00;;
23814;SDS011;12088;53.078;8.720;2024-02-23T09:44:58;6.53;;;2.10;;
23814;SDS011;12088;53.078;8.720;2024-02-23T09:47:26;8.20;;;2.03;;
23814;SDS011;12088;53.078;8.720;2024-02-23T09:49:52;4.50;;;1.73;;
23814;SDS011;12088;53.078;8.720;2024-02-23T09:52:18;4.97;;;1.70;;
23814;SDS011;12088;53.078;8.720;2024-02-23T09:54:44;7.10;;;1.53;;
23814;SDS011;12088;53.078;8.720;2024-02-23T09:57:10;9.30;;;2.07;;
23814;SDS011;12088;53.078;8.720;2024-02-23T09:59:36;5.23;;;1.87;;
23814;SDS011;12088;53.078;8.720;2024-02-23T10:02:09;4.20;;;1.60;;
23814;SDS011;12088;53.078;8.720;2024-02-23T10:04:35;5.57;;;1.50;;
23814;SDS011;12088;53.078;8.720;2024-02-23T10:07:01;6.60;;;2.10;;
23814;SDS011;12088;53.078;8.720;2024-02-23T10:09:29;3.43;;;1.40;;
23814;SDS011;12088;53.078;8.720;2024-02-23T10:11:55;9.37;;;2.10;;
23814;SDS011;12088;53.078;8.720;2024-02-23T10:14:22;6.97;;;1.70;;
23814;SDS011;12088;53.078;8.720;2024-02-23T10:16:48;4.37;;;1.60;;
23814;SDS011;12088;53.078;8.720;2024-02-23T10:19:21;4.93;;;2.07;;
23814;SDS011;12088;53.078;8.720;2024-02-23T10:21:53;4.03;;;1.80;;
23814;SDS011;12088;53.078;8.720;2024-02-23T10:24:19;6.03;;;2.17;;
23814;SDS011;12088;53.078;8.720;2024-02-23T10:26:46;3.03;;;1.60;;
23814;SDS011;12088;53.078;8.720;2024-02-23T10:29:12;6.57;;;2.03;;
23814;SDS011;12088;53.078;8.720;2024-02-23T10:31:38;8.87;;;2.13;;
23814;SDS011;12088;53.078;8.720;2024-02-23T10:34:08;3.63;;;1.90;;
23814;SDS011;12088;53.078;8.720;2024-02-23T10:36:39;5.60;;;1.50;;
23814;SDS011;12088;53.078;8.720;2024-02-23T10:39:05;6.77;;;1.67;;
23814;SDS011;12088;53.078;8.720;2024-02-23T10:41:34;4.90;;;1.77;;
23814;SDS011;12088;53.078;8.720;2024-02-23T10:44:01;3.70;;;1.60;;
23814;SDS011;12088;53.078;8.720;2024-02-23T10:46:28;8.03;;;1.50;;
23814;SDS011;12088;53.078;8.720;2024-02-23T10:48:55;5.10;;;1.93;;
23814;SDS011;12088;53.078;8.720;2024-02-23T10:51:21;5.23;;;1.33;;
23814;SDS011;12088;53.078;8.720;2024-02-23T10:53:48;3.87;;;1.60;;
23814;SDS011;12088;53.078;8.720;2024-02-23T10:56:14;2.83;;;1.50;;
23814;SDS011;12088;53.078;8.720;2024-02-23T10:58:40;6.70;;;1.77;;
23814;SDS011;12088;53.078;8.720;2024-02-23T11:01:07;5.13;;;1.73;;
23814;SDS011;12088;53.078;8.720;2024-02-23T11:03:34;2.90;;;1.40;;
23814;SDS011;12088;53.078;8.720;2024-02-23T11:06:01;4.13;;;1.70;;
23814;SDS011;12088;53.078;8.720;2024-02-23T11:08:30;4.30;;;1.50;;
23814;SDS011;12088;53.078;8.720;2024-02-23T11:11:06;5.43;;;1.63;;
23814;SDS011;12088;53.078;8.720;2024-02-23T11:13:39;4.27;;;2.23;;
23814;SDS011;12088;53.078;8.720;2024-02-23T11:16:06;3.30;;;1.70;;
23814;SDS011;12088;53.078;8.720;2024-02-23T11:18:34;2.77;;;1.50;;
23814;SDS011;12088;53.078;8.720;2024-02-23T11:21:01;6.87;;;2.43;;
23814;SDS011;12088;53.078;8.720;2024-02-23T11:26:13;7.50;;;1.90;;
23814;SDS011;12088;53.078;8.720;2024-02-23T11:31:15;3.63;;;1.70;;
23814;SDS011;12088;53.078;8.720;2024-02-23T11:33:51;1.90;;;1.13;;
23814;SDS011;12088;53.078;8.720;2024-02-23T11:36:27;4.70;;;1.47;;
23814;SDS011;12088;53.078;8.720;2024-02-23T11:38:54;4.83;;;1.37;;
23814;SDS011;12088;53.078;8.720;2024-02-23T11:41:22;5.53;;;1.70;;
23814;SDS011;12088;53.078;8.720;2024-02-23T11:43:51;2.73;;;1.27;;
23814;SDS011;12088;53.078;8.720;2024-02-23T11:46:17;3.23;;;1.30;;
23814;SDS011;12088;53.078;8.720;2024-02-23T11:48:43;4.20;;;1.47;;
23814;SDS011;12088;53.078;8.720;2024-02-23T11:51:11;4.77;;;1.40;;
23814;SDS011;12088;53.078;8.720;2024-02-23T11:53:37;3.93;;;1.37;;
23814;SDS011;12088;53.078;8.720;2024-02-23T11:56:07;2.00;;;1.30;;
23814;SDS011;12088;53.078;8.720;2024-02-23T11:58:33;5.73;;;1.60;;
23814;SDS011;12088;53.078;8.720;2024-02-23T12:01:00;3.67;;;1.17;;
23814;SDS011;12088;53.078;8.720;2024-02-23T12:03:28;3.63;;;1.40;;
23814;SDS011;12088;53.078;8.720;2024-02-23T12:05:54;4.23;;;1.70;;
23814;SDS011;12088;53.078;8.720;2024-02-23T12:08:22;3.73;;;1.50;;
23814;SDS011;12088;53.078;8.720;2024-02-23T12:10:48;4.60;;;1.40;;
23814;SDS011;12088;53.078;8.720;2024-02-23T12:13:14;4.67;;;1.50;;
23814;SDS011;12088;53.078;8.720;2024-02-23T12:15:40;1.77;;;1.57;;
23814;SDS011;12088;53.078;8.720;2024-02-23T12:18:12;3.43;;;1.37;;
23814;SDS011;12088;53.078;8.720;2024-02-23T12:20:39;4.63;;;1.33;;
23814;SDS011;12088;53.078;8.720;2024-02-23T12:23:05;4.37;;;1.47;;
23814;SDS011;12088;53.078;8.720;2024-02-23T12:25:35;3.50;;;2.00;;
23814;SDS011;12088;53.078;8.720;2024-02-23T12:28:01;6.00;;;1.50;;
23814;SDS011;12088;53.078;8.720;2024-02-23T12:30:28;4.33;;;1.67;;
23814;SDS011;12088;53.078;8.720;2024-02-23T12:33:03;2.57;;;1.13;;
23814;SDS011;12088;53.078;8.720;2024-02-23T12:35:29;6.00;;;1.90;;
23814;SDS011;12088;53.078;8.720;2024-02-23T12:37:55;3.50;;;1.50;;
23814;SDS011;12088;53.078;8.720;2024-02-23T12:40:21;4.97;;;1.50;;
23814;SDS011;12088;53.078;8.720;2024-02-23T12:42:47;2.37;;;1.43;;
23814;SDS011;12088;53.078;8.720;2024-02-23T12:45:13;2.40;;;1.30;;
23814;SDS011;12088;53.078;8.720;2024-02-23T12:47:39;3.73;;;1.43;;
23814;SDS011;12088;53.078;8.720;2024-02-23T12:50:06;2.50;;;1.30;;
23814;SDS011;12088;53.078;8.720;2024-02-23T12:52:33;2.03;;;1.40;;
23814;SDS011;12088;53.078;8.720;2024-02-23T12:54:59;4.27;;;1.30;;
23814;SDS011;12088;53.078;8.720;2024-02-23T12:57:25;4.03;;;1.53;;
23814;SDS011;12088;53.078;8.720;2024-02-23T12:59:51;2.00;;;1.40;;
23814;SDS011;12088;53.078;8.720;2024-02-23T13:02:17;2.70;;;1.73;;
23814;SDS011;12088;53.078;8.720;2024-02-23T13:04:44;4.33;;;1.30;;
23814;SDS011;12088;53.078;8.720;2024-02-23T13:07:13;6.20;;;1.50;;
23814;SDS011;12088;53.078;8.720;2024-02-23T13:09:40;1.83;;;1.40;;
23814;SDS011;12088;53.078;8.720;2024-02-23T13:12:06;2.87;;;1.37;;
23814;SDS011;12088;53.078;8.720;2024-02-23T13:14:32;2.90;;;1.37;;
23814;SDS011;12088;53.078;8.720;2024-02-23T13:16:58;5.10;;;1.40;;
23814;SDS011;12088;53.078;8.720;2024-02-23T13:19:24;4.43;;;1.20;;
23814;SDS011;12088;53.078;8.720;2024-02-23T13:21:50;3.20;;;1.30;;
23814;SDS011;12088;53.078;8.720;2024-02-23T13:24:16;2.13;;;1.30;;
23814;SDS011;12088;53.078;8.720;2024-02-23T13:26:42;2.90;;;1.27;;
23814;SDS011;12088;53.078;8.720;2024-02-23T13:29:08;5.00;;;1.80;;
23814;SDS011;12088;53.078;8.720;2024-02-23T13:31:34;3.53;;;1.73;;
23814;SDS011;12088;53.078;8.720;2024-02-23T13:34:00;5.00;;;1.30;;
23814;SDS011;12088;53.078;8.720;2024-02-23T13:36:26;2.73;;;1.40;;
23814;SDS011;12088;53.078;8.720;2024-02-23T13:38:52;1.80;;;1.20;;
23814;SDS011;12088;53.078;8.720;2024-02-23T13:41:18;3.90;;;1.20;;
23814;SDS011;12088;53.078;8.720;2024-02-23T13:43:44;4.73;;;1.20;;
23814;SDS011;12088;53.078;8.720;2024-02-23T13:46:10;5.23;;;1.60;;
23814;SDS011;12088;53.078;8.720;2024-02-23T13:48:36;3.30;;;1.20;;
23814;SDS011;12088;53.078;8.720;2024-02-23T13:51:02;4.00;;;1.37;;
23814;SDS011;12088;53.078;8.720;2024-02-23T13:53:30;5.83;;;1.30;;
23814;SDS011;12088;53.078;8.720;2024-02-23T13:55:56;4.50;;;1.70;;
23814;SDS011;12088;53.078;8.720;2024-02-23T13:58:22;5.07;;;1.50;;
23814;SDS011;12088;53.078;8.720;2024-02-23T14:00:48;4.73;;;1.50;;
23814;SDS011;12088;53.078;8.720;2024-02-23T14:03:16;4.03;;;1.37;;
23814;SDS011;12088;53.078;8.720;2024-02-23T14:05:46;3.07;;;1.40;;
23814;SDS011;12088;53.078;8.720;2024-02-23T14:08:12;4.57;;;1.30;;
23814;SDS011;12088;53.078;8.720;2024-02-23T14:10:38;2.80;;;1.33;;
23814;SDS011;12088;53.078;8.720;2024-02-23T14:13:05;4.70;;;1.20;;
23814;SDS011;12088;53.078;8.720;2024-02-23T14:15:31;4.23;;;1.33;;
23814;SDS011;12088;53.078;8.720;2024-02-23T14:17:57;2.90;;;1.30;;
23814;SDS011;12088;53.078;8.720;2024-02-23T14:20:23;2.57;;;1.00;;
23814;SDS011;12088;53.078;8.720;2024-02-23T14:22:49;2.33;;;1.30;;
23814;SDS011;12088;53.078;8.720;2024-02-23T14:25:17;2.53;;;1.20;;
23814;SDS011;12088;53.078;8.720;2024-02-23T14:27:43;4.03;;;1.37;;
23814;SDS011;12088;53.078;8.720;2024-02-23T14:30:09;4.53;;;1.80;;
23814;SDS011;12088;53.078;8.720;2024-02-23T14:32:35;2.27;;;1.00;;
23814;SDS011;12088;53.078;8.720;2024-02-23T14:35:02;4.57;;;1.60;;
23814;SDS011;12088;53.078;8.720;2024-02-23T14:37:28;4.63;;;1.13;;
23814;SDS011;12088;53.078;8.720;2024-02-23T14:39:54;3.67;;;1.37;;
23814;SDS011;12088;53.078;8.720;2024-02-23T14:42:20;1.57;;;0.97;;
23814;SDS011;12088;53.078;8.720;2024-02-23T14:44:47;3.40;;;1.53;;
23814;SDS011;12088;53.078;8.720;2024-02-23T14:47:15;2.80;;;1.40;;
23814;SDS011;12088;53.078;8.720;2024-02-23T14:49:41;2.27;;;1.40;;